Time;durP1;ratioP1;P1;durP2;ratioP2;P2;SDS_P1;SDS_P2;PMS_P1;PMS_P2;Temp;Humidity;BMP_temperature;BMP_pressure;BME280_temperature;BME280_humidity;BME280_pressure;Samples;Min_cycle;Max_cycle;Signal;HPM_P1;HPM_P2
2022/03/23 00:02:25;;;;;;;9.80;7.27;;;4.90;56.00;;;;;;5117040;28;20259;-85
2022/03/23 00:04:53;;;;;;;11.07;7.40;;;4.90;55.30;;;;;;5117084;28;20180;-83
2022/03/23 00:07:20;;;;;;;9.10;7.47;;;5.00;55.80;;;;;;5100662;28;20181;-84
2022/03/23 00:09:47;;;;;;;9.33;7.50;;;5.00;56.20;;;;;;5120645;28;20624;-83
2022/03/23 00:12:13;;;;;;;8.57;7.00;;;5.10;56.80;;;;;;5116751;28;20295;-85
2022/03/23 00:14:38;;;;;;;8.30;7.10;;;5.10;56.70;;;;;;5117119;28;20256;-83
2022/03/23 00:17:04;;;;;;;7.87;7.07;;;5.10;55.50;;;;;;5098538;28;20226;-83
2022/03/23 00:19:30;;;;;;;9.80;6.87;;;5.10;55.40;;;;;;5116828;28;20178;-85
2022/03/23 00:21:56;;;;;;;8.23;7.07;;;5.20;55.00;;;;;;5117114;28;20180;-87
2022/03/23 00:24:22;;;;;;;8.23;7.20;;;5.20;54.70;;;;;;5117100;28;20185;-85
2022/03/23 00:26:48;;;;;;;8.23;7.17;;;5.20;54.80;;;;;;5118001;28;20523;-86
2022/03/23 00:29:13;;;;;;;11.20;6.77;;;5.30;54.60;;;;;;5116621;28;20221;-85
2022/03/23 00:31:39;;;;;;;8.43;7.03;;;5.20;55.00;;;;;;5119123;28;20177;-83
2022/03/23 00:34:05;;;;;;;7.50;6.50;;;5.20;55.00;;;;;;5128665;28;20208;-83
2022/03/23 00:36:31;;;;;;;8.90;8.00;;;5.10;54.90;;;;;;5118890;28;20201;-83
2022/03/23 00:38:58;;;;;;;9.23;7.40;;;5.10;55.00;;;;;;5117724;28;20644;-84
2022/03/23 00:41:23;;;;;;;6.93;6.23;;;5.10;55.20;;;;;;5124877;28;20179;-84
2022/03/23 00:43:49;;;;;;;9.93;7.40;;;5.00;55.40;;;;;;5128279;28;20178;-81
2022/03/23 00:46:15;;;;;;;10.87;7.70;;;5.00;55.90;;;;;;5128028;28;20161;-83
2022/03/23 00:48:42;;;;;;;10.90;7.27;;;4.90;55.70;;;;;;5120446;28;20200;-86
2022/03/23 00:51:08;;;;;;;9.67;7.07;;;5.00;55.40;;;;;;5098471;28;20202;-85
2022/03/23 00:53:34;;;;;;;9.37;6.97;;;4.90;55.50;;;;;;5117006;28;20251;-83
2022/03/23 00:56:00;;;;;;;7.37;6.67;;;4.90;55.50;;;;;;5115224;28;20591;-86
2022/03/23 00:58:26;;;;;;;8.90;6.87;;;4.90;55.90;;;;;;5116883;28;20174;-88
2022/03/23 01:00:52;;;;;;;14.73;7.00;;;4.90;56.10;;;;;;5118249;28;20197;-87
2022/03/23 01:03:18;;;;;;;9.07;7.03;;;4.90;55.80;;;;;;5118217;28;20174;-87
2022/03/23 01:05:44;;;;;;;7.57;6.73;;;4.80;55.90;;;;;;5116262;28;20203;-88
2022/03/23 01:08:09;;;;;;;8.77;6.80;;;4.90;55.80;;;;;;5116177;28;20683;-87
2022/03/23 01:10:36;;;;;;;9.03;7.13;;;4.90;55.70;;;;;;5115558;28;20174;-90
2022/03/23 01:13:02;;;;;;;7.37;6.60;;;4.90;55.80;;;;;;5097671;28;20305;-88
2022/03/23 01:15:29;;;;;;;8.43;7.20;;;4.80;55.80;;;;;;5116136;28;20590;-87
2022/03/23 01:17:55;;;;;;;10.40;6.80;;;4.70;56.00;;;;;;5115873;28;20625;-88
2022/03/23 01:20:21;;;;;;;8.37;6.97;;;4.80;56.30;;;;;;5115968;28;20173;-87
2022/03/23 01:22:48;;;;;;;9.80;6.80;;;4.80;56.40;;;;;;5116194;28;20173;-89
2022/03/23 01:25:14;;;;;;;10.10;6.57;;;4.80;56.40;;;;;;5117731;28;20181;-87
2022/03/23 01:27:42;;;;;;;9.77;6.80;;;4.80;56.50;;;;;;5120553;28;20195;-87
2022/03/23 01:30:11;;;;;;;10.87;7.03;;;4.80;56.60;;;;;;5098202;28;20229;-90
2022/03/23 01:32:38;;;;;;;9.43;6.73;;;4.70;56.80;;;;;;5097055;28;20343;-90
2022/03/23 01:35:05;;;;;;;12.63;7.23;;;4.80;56.90;;;;;;5095648;28;20174;-90
2022/03/23 01:37:31;;;;;;;10.43;6.43;;;4.80;56.50;;;;;;5111824;28;20268;-87
2022/03/23 01:39:57;;;;;;;9.07;6.70;;;4.80;56.30;;;;;;5092127;28;20176;-86
2022/03/23 01:42:26;;;;;;;7.33;6.63;;;4.70;56.70;;;;;;5095500;28;20174;-86
2022/03/23 01:44:52;;;;;;;9.93;6.50;;;4.70;56.70;;;;;;5095252;28;20202;-83
2022/03/23 01:47:17;;;;;;;6.97;6.27;;;4.70;56.50;;;;;;5096712;28;20208;-85
2022/03/23 01:49:49;;;;;;;7.27;6.23;;;4.70;56.50;;;;;;5095230;28;20179;-85
2022/03/23 01:52:16;;;;;;;9.67;6.70;;;4.80;56.70;;;;;;5093305;28;20186;-88
2022/03/23 01:54:43;;;;;;;16.33;7.17;;;4.80;56.70;;;;;;5093792;28;20186;-86
2022/03/23 01:57:11;;;;;;;8.33;7.30;;;4.80;56.60;;;;;;5094153;28;20226;-86
2022/03/23 01:59:37;;;;;;;9.53;6.83;;;4.70;56.60;;;;;;5093908;28;20221;-85
2022/03/23 02:02:04;;;;;;;9.90;6.57;;;4.70;56.50;;;;;;5094306;28;20180;-87
2022/03/23 02:04:30;;;;;;;9.67;6.83;;;4.80;56.60;;;;;;5094658;28;20174;-85
2022/03/23 02:06:56;;;;;;;6.67;6.07;;;4.70;56.40;;;;;;5094300;28;20173;-87
2022/03/23 02:09:24;;;;;;;10.23;6.57;;;4.80;56.50;;;;;;5093957;28;20169;-86
2022/03/23 02:11:50;;;;;;;7.67;6.23;;;4.80;56.50;;;;;;5094103;28;20181;-85
2022/03/23 02:14:16;;;;;;;6.90;6.13;;;4.80;56.60;;;;;;5095252;28;20208;-83
2022/03/23 02:16:48;;;;;;;8.70;6.30;;;4.70;56.50;;;;;;5095243;28;20513;-84
2022/03/23 02:19:14;;;;;;;8.30;6.37;;;4.70;56.70;;;;;;5095114;28;20165;-86
2022/03/23 02:21:44;;;;;;;9.40;6.53;;;4.70;56.60;;;;;;5092299;28;20251;-86
2022/03/23 02:24:10;;;;;;;11.03;6.80;;;4.80;56.70;;;;;;5095354;28;20169;-86
2022/03/23 02:26:40;;;;;;;7.27;6.50;;;4.80;56.60;;;;;;5094203;28;20181;-85
2022/03/23 02:29:06;;;;;;;9.10;6.50;;;4.60;56.60;;;;;;5105297;28;20691;-87
2022/03/23 02:31:32;;;;;;;8.97;6.40;;;4.70;56.70;;;;;;5114320;28;20260;-85
2022/03/23 02:33:58;;;;;;;7.50;6.43;;;4.70;56.70;;;;;;5114551;28;20193;-87
2022/03/23 02:36:24;;;;;;;8.17;6.57;;;4.70;56.90;;;;;;5114054;28;20158;-85
2022/03/23 02:38:50;;;;;;;11.23;7.03;;;4.70;56.80;;;;;;5095628;28;20591;-84
2022/03/23 02:41:16;;;;;;;8.37;6.23;;;4.60;56.80;;;;;;5114034;28;20216;-83
2022/03/23 02:43:42;;;;;;;7.53;6.53;;;4.60;56.90;;;;;;5113871;28;20656;-84
2022/03/23 02:46:18;;;;;;;9.20;6.77;;;4.60;57.00;;;;;;5113637;28;20275;-83
2022/03/23 02:48:44;;;;;;;8.67;6.80;;;4.70;57.10;;;;;;5113438;28;20164;-84
2022/03/23 02:51:11;;;;;;;7.17;6.47;;;4.60;57.00;;;;;;5113376;28;20165;-85
2022/03/23 03:02:59;;;;;;;8.33;6.03;;;4.60;57.30;;;;;;5113501;28;20172;-89
2022/03/23 03:05:25;;;;;;;9.47;6.30;;;4.60;57.50;;;;;;5098343;28;20602;-85
2022/03/23 03:10:35;;;;;;;6.57;5.97;;;4.60;57.50;;;;;;5117570;28;20520;-86
2022/03/23 03:13:01;;;;;;;7.03;6.37;;;4.50;57.50;;;;;;5114174;28;20204;-87
2022/03/23 03:15:27;;;;;;;7.20;6.50;;;4.50;57.60;;;;;;5114498;28;20170;-87
2022/03/23 03:17:57;;;;;;;7.87;6.77;;;4.50;58.30;;;;;;5114481;28;20184;-88
2022/03/23 03:20:23;;;;;;;10.77;6.60;;;4.50;57.90;;;;;;5119311;28;20229;-84
2022/03/23 03:22:49;;;;;;;7.00;6.27;;;4.40;58.20;;;;;;5101122;28;20257;-87
2022/03/23 03:25:16;;;;;;;8.07;6.97;;;4.40;58.10;;;;;;5117662;28;20161;-89
2022/03/23 03:27:43;;;;;;;7.10;6.40;;;4.50;58.00;;;;;;5115069;28;20219;-85
2022/03/23 03:30:12;;;;;;;7.33;6.47;;;4.40;58.00;;;;;;5114497;28;20189;-88
2022/03/23 03:32:39;;;;;;;9.40;6.93;;;4.50;58.10;;;;;;5114494;28;20212;-86
2022/03/23 03:35:05;;;;;;;9.60;6.67;;;4.40;58.30;;;;;;5117993;28;20177;-88
2022/03/23 03:37:32;;;;;;;7.57;6.77;;;4.40;58.60;;;;;;5118719;28;20169;-87
2022/03/23 03:39:59;;;;;;;9.03;6.77;;;4.30;58.60;;;;;;5119232;28;20174;-88
2022/03/23 03:42:25;;;;;;;10.77;7.40;;;4.30;59.20;;;;;;5118429;28;20164;-84
2022/03/23 03:44:51;;;;;;;11.80;8.47;;;4.30;59.80;;;;;;5117799;28;20218;-85
2022/03/23 03:47:19;;;;;;;15.73;10.43;;;4.40;60.00;;;;;;5100346;28;20183;-89
2022/03/23 03:49:45;;;;;;;20.87;10.83;;;4.30;61.60;;;;;;5117158;28;20628;-86
2022/03/23 03:52:10;;;;;;;18.80;11.43;;;4.30;62.50;;;;;;5117387;28;20174;-86
2022/03/23 03:54:37;;;;;;;19.93;11.90;;;4.20;63.20;;;;;;5117189;28;20204;-89
2022/03/23 03:57:03;;;;;;;16.40;10.97;;;4.20;63.40;;;;;;5117589;28;20648;-84
2022/03/23 03:59:29;;;;;;;16.87;10.77;;;4.10;62.60;;;;;;5117798;28;20652;-85
2022/03/23 04:01:55;;;;;;;9.63;6.93;;;4.00;63.20;;;;;;5118225;28;20213;-87
2022/03/23 04:04:20;;;;;;;7.53;6.77;;;4.00;61.00;;;;;;5118037;28;20174;-87
2022/03/23 04:06:46;;;;;;;9.63;6.90;;;4.10;60.20;;;;;;5117664;28;20166;-86
2022/03/23 04:09:12;;;;;;;7.83;7.03;;;4.10;60.30;;;;;;5097911;28;20266;-84
2022/03/23 04:11:38;;;;;;;8.93;7.23;;;4.10;60.40;;;;;;5116507;28;20739;-83
2022/03/23 04:14:04;;;;;;;8.27;6.17;;;4.20;60.40;;;;;;5116906;28;20240;-83
2022/03/23 04:16:30;;;;;;;8.00;6.73;;;4.20;59.90;;;;;;5117413;28;20174;-85
2022/03/23 04:18:55;;;;;;;8.77;6.67;;;4.30;59.50;;;;;;5099087;28;20207;-83
2022/03/23 04:21:21;;;;;;;8.20;6.60;;;4.30;59.50;;;;;;5118306;28;20226;-85
2022/03/23 04:23:47;;;;;;;10.73;6.80;;;4.20;59.50;;;;;;5116937;28;20178;-89
2022/03/23 04:26:13;;;;;;;7.00;6.20;;;4.20;59.70;;;;;;5118691;28;20161;-84
2022/03/23 04:28:39;;;;;;;7.20;5.83;;;4.20;59.60;;;;;;5122772;28;20709;-89
2022/03/23 04:31:06;;;;;;;6.57;5.90;;;4.30;59.50;;;;;;5116478;28;20593;-87
2022/03/23 04:33:33;;;;;;;7.53;5.93;;;4.40;59.50;;;;;;5116946;28;20284;-83
2022/03/23 04:35:59;;;;;;;9.20;6.57;;;4.30;59.50;;;;;;5116542;28;20206;-88
2022/03/23 04:38:26;;;;;;;9.33;6.30;;;4.30;59.60;;;;;;5116912;28;20182;-87
2022/03/23 04:40:52;;;;;;;10.47;5.90;;;4.30;59.80;;;;;;5115998;28;20169;-84
2022/03/23 04:43:18;;;;;;;6.50;5.90;;;4.30;59.60;;;;;;5117725;28;20169;-88
2022/03/23 04:45:44;;;;;;;8.13;5.70;;;4.30;59.50;;;;;;5118593;28;20178;-86
2022/03/23 04:48:10;;;;;;;13.47;6.53;;;4.30;59.80;;;;;;5117282;28;20252;-87
2022/03/23 04:50:36;;;;;;;8.70;6.07;;;4.30;59.60;;;;;;5116629;28;20632;-88
2022/03/23 04:53:01;;;;;;;7.33;5.87;;;4.30;59.60;;;;;;5115334;28;20831;-87
2022/03/23 04:55:27;;;;;;;7.67;6.80;;;4.20;59.80;;;;;;5115369;28;20204;-88
2022/03/23 04:57:53;;;;;;;8.00;6.53;;;4.20;60.00;;;;;;5115035;28;20177;-89
2022/03/23 05:00:20;;;;;;;9.30;6.50;;;4.20;60.20;;;;;;5116440;28;20222;-89
2022/03/23 05:02:48;;;;;;;9.33;6.60;;;4.30;60.90;;;;;;5116121;28;20191;-87
2022/03/23 05:05:15;;;;;;;6.73;6.03;;;4.50;63.60;;;;;;5116410;28;20172;-89
2022/03/23 05:07:43;;;;;;;9.57;5.60;;;4.60;63.00;;;;;;5117120;28;20196;-89
2022/03/23 05:10:10;;;;;;;11.00;6.97;;;4.60;61.20;;;;;;5121885;28;20663;-88
2022/03/23 05:12:38;;;;;;;8.57;6.50;;;4.50;60.10;;;;;;5119207;28;20170;-89
2022/03/23 05:15:06;;;;;;;7.03;6.23;;;4.50;60.10;;;;;;5116593;28;20644;-89
2022/03/23 05:17:32;;;;;;;11.40;6.30;;;4.50;60.00;;;;;;5098637;28;20325;-90
2022/03/23 05:19:58;;;;;;;9.07;6.10;;;4.50;60.00;;;;;;5116736;28;20177;-88
2022/03/23 05:22:24;;;;;;;6.73;6.00;;;4.40;60.00;;;;;;5115942;28;20177;-86
2022/03/23 05:24:50;;;;;;;7.20;6.50;;;4.50;60.00;;;;;;5116221;28;20197;-86
2022/03/23 05:27:16;;;;;;;8.87;6.43;;;4.40;60.00;;;;;;5120275;28;20537;-83
2022/03/23 05:29:43;;;;;;;10.90;6.00;;;4.50;60.00;;;;;;5101946;28;20303;-83
2022/03/23 05:32:16;;;;;;;9.77;6.10;;;4.50;60.60;;;;;;5099153;28;20234;-83
2022/03/23 05:34:44;;;;;;;10.87;6.30;;;4.50;59.90;;;;;;5099097;28;20600;-85
2022/03/23 05:37:11;;;;;;;11.23;7.13;;;4.50;60.00;;;;;;5096661;28;20220;-85
2022/03/23 05:39:38;;;;;;;8.10;6.30;;;4.50;60.10;;;;;;5099569;28;20197;-88
2022/03/23 05:42:05;;;;;;;7.70;6.57;;;4.50;60.30;;;;;;5096902;28;20166;-86
2022/03/23 05:44:31;;;;;;;8.60;6.57;;;4.50;60.20;;;;;;5096592;28;20166;-84
2022/03/23 05:46:57;;;;;;;19.90;9.00;;;4.40;60.40;;;;;;5094633;28;20169;-87
2022/03/23 05:49:23;;;;;;;15.67;8.53;;;4.40;61.10;;;;;;5093828;28;20189;-85
2022/03/23 05:51:49;;;;;;;17.00;10.03;;;4.40;61.00;;;;;;5095146;28;20171;-86
2022/03/23 05:54:16;;;;;;;22.73;12.73;;;4.40;61.50;;;;;;5095421;28;20229;-86
2022/03/23 05:56:42;;;;;;;24.07;12.77;;;4.50;62.80;;;;;;5093882;28;20212;-88
2022/03/23 05:59:07;;;;;;;26.03;12.67;;;4.50;63.40;;;;;;5094611;28;20178;-86
2022/03/23 06:01:34;;;;;;;27.23;13.47;;;4.40;63.80;;;;;;5094915;28;20246;-88
2022/03/23 06:04:01;;;;;;;26.03;13.03;;;4.40;64.30;;;;;;5094688;28;20174;-85
2022/03/23 06:06:27;;;;;;;27.27;13.97;;;4.30;64.50;;;;;;5095214;28;20177;-85
2022/03/23 06:08:52;;;;;;;26.77;13.23;;;4.30;64.80;;;;;;5097653;28;20256;-85
2022/03/23 06:11:18;;;;;;;30.03;15.07;;;4.30;65.30;;;;;;5096288;28;20212;-87
2022/03/23 06:13:44;;;;;;;33.97;16.00;;;4.20;65.90;;;;;;5096003;28;20198;-86
2022/03/23 06:16:11;;;;;;;33.07;16.10;;;4.20;66.60;;;;;;5094810;28;20170;-86
2022/03/23 06:18:37;;;;;;;31.40;15.73;;;4.20;66.90;;;;;;5095003;28;20171;-84
2022/03/23 06:21:04;;;;;;;36.03;16.60;;;4.20;67.20;;;;;;5095021;28;20182;-86
2022/03/23 06:23:30;;;;;;;54.77;16.23;;;4.20;67.30;;;;;;5095182;28;20202;-86
2022/03/23 06:25:57;;;;;;;34.67;17.37;;;4.10;67.30;;;;;;5095980;28;20165;-83
2022/03/23 06:28:23;;;;;;;34.20;15.53;;;4.10;67.50;;;;;;5099844;28;20238;-84
2022/03/23 06:30:50;;;;;;;36.63;17.27;;;4.10;67.30;;;;;;5114716;28;20162;-86
2022/03/23 06:33:20;;;;;;;50.57;16.53;;;4.10;67.30;;;;;;5114713;28;20671;-85
2022/03/23 06:35:47;;;;;;;55.20;18.67;;;4.20;67.30;;;;;;5114737;28;20625;-84
2022/03/23 06:38:16;;;;;;;47.33;15.27;;;4.10;67.80;;;;;;5114483;28;20248;-85
2022/03/23 06:40:42;;;;;;;33.57;16.53;;;4.20;68.20;;;;;;5114945;28;20255;-84
2022/03/23 06:43:07;;;;;;;31.80;15.93;;;4.20;68.40;;;;;;5115077;28;20672;-84
2022/03/23 06:45:33;;;;;;;49.03;17.27;;;4.20;68.00;;;;;;5128670;28;20173;-87
2022/03/23 06:47:59;;;;;;;50.63;18.40;;;4.20;68.00;;;;;;5109400;28;20180;-85
2022/03/23 06:50:25;;;;;;;45.73;16.27;;;4.30;68.20;;;;;;5101017;28;20178;-86
2022/03/23 06:52:51;;;;;;;42.93;15.90;;;4.40;67.80;;;;;;5097908;28;20215;-87
2022/03/23 06:55:17;;;;;;;45.43;17.20;;;4.40;67.90;;;;;;5114652;28;20176;-88
2022/03/23 06:57:43;;;;;;;38.20;16.90;;;4.40;67.70;;;;;;5115284;28;20184;-86
2022/03/23 07:00:13;;;;;;;53.53;17.20;;;4.30;67.70;;;;;;5115427;28;20612;-84
2022/03/23 07:02:45;;;;;;;50.20;16.07;;;4.40;67.80;;;;;;5116245;28;20224;-89
2022/03/23 07:05:13;;;;;;;55.73;16.87;;;4.50;67.60;;;;;;5114575;28;20515;-90
2022/03/23 07:09:31;;;;;;;40.80;16.43;;;4.60;67.50;;;;;;5115169;28;20229;-90
2022/03/23 07:10:25;;;;;;;41.17;15.67;;;4.70;67.30;;;;;;5118229;28;20154;-86
2022/03/23 07:12:51;;;;;;;47.20;15.47;;;4.80;67.50;;;;;;5118634;28;20220;-86
2022/03/23 07:15:17;;;;;;;50.87;15.93;;;4.90;67.20;;;;;;5120214;28;20624;-86
2022/03/23 07:17:43;;;;;;;25.70;14.97;;;5.10;66.10;;;;;;5118607;28;20215;-86
2022/03/23 07:20:09;;;;;;;30.00;13.23;;;5.30;66.80;;;;;;5117962;28;20166;-90
2022/03/23 07:22:35;;;;;;;26.13;13.17;;;5.50;65.70;;;;;;5118651;28;20184;-86
2022/03/23 07:25:01;;;;;;;30.43;14.30;;;5.70;68.10;;;;;;5099730;28;20171;-85
2022/03/23 07:27:30;;;;;;;35.03;14.33;;;5.80;65.10;;;;;;5118763;28;20188;-87
2022/03/23 07:29:56;;;;;;;25.97;12.63;;;5.90;64.60;;;;;;5119307;28;20229;-85
2022/03/23 07:32:22;;;;;;;33.00;14.20;;;6.00;65.30;;;;;;5118033;28;20207;-84
2022/03/23 07:34:48;;;;;;;26.50;13.87;;;6.10;65.00;;;;;;5118348;28;20242;-84
2022/03/23 07:37:15;;;;;;;28.70;13.50;;;6.20;64.00;;;;;;5099728;28;20197;-87
2022/03/23 07:39:41;;;;;;;29.10;13.03;;;6.30;63.80;;;;;;5118344;28;20176;-83
2022/03/23 07:42:07;;;;;;;23.73;13.00;;;6.50;63.50;;;;;;5118541;28;20169;-87
2022/03/23 07:44:33;;;;;;;27.67;13.20;;;6.60;63.10;;;;;;5119674;28;20209;-87
2022/03/23 07:46:59;;;;;;;23.33;12.63;;;6.70;63.70;;;;;;5100932;28;20168;-88
2022/03/23 07:49:25;;;;;;;23.37;12.57;;;6.80;62.40;;;;;;5119007;28;20505;-85
2022/03/23 07:51:51;;;;;;;29.43;11.73;;;7.00;62.50;;;;;;5120421;28;20178;-85
2022/03/23 07:54:17;;;;;;;23.70;12.53;;;7.00;61.70;;;;;;5122616;28;20216;-85
2022/03/23 07:56:44;;;;;;;30.07;12.90;;;7.20;61.50;;;;;;5100329;28;20220;-84
2022/03/23 07:59:10;;;;;;;25.07;11.77;;;7.30;61.00;;;;;;5117866;28;20186;-86
2022/03/23 08:01:36;;;;;;;31.37;12.97;;;7.40;60.90;;;;;;5118862;28;20173;-85
2022/03/23 08:04:02;;;;;;;26.23;14.00;;;7.40;60.90;;;;;;5099594;28;20697;-83
2022/03/23 08:06:34;;;;;;;26.23;12.50;;;7.60;61.50;;;;;;5118717;28;20170;-85
2022/03/23 08:09:02;;;;;;;28.20;12.20;;;7.70;61.80;;;;;;5117564;28;20483;-85
2022/03/23 08:11:28;;;;;;;22.83;11.47;;;7.70;60.40;;;;;;5117508;28;20171;-84
2022/03/23 08:13:54;;;;;;;25.20;11.33;;;7.80;60.60;;;;;;5117054;28;20241;-84
2022/03/23 08:16:19;;;;;;;16.90;11.43;;;8.00;60.00;;;;;;5116838;28;20215;-84
2022/03/23 08:18:45;;;;;;;21.20;11.70;;;8.20;59.10;;;;;;5116684;28;20180;-85
2022/03/23 08:21:11;;;;;;;23.87;11.03;;;8.30;58.70;;;;;;5116256;28;20172;-85
2022/03/23 08:23:38;;;;;;;24.57;11.93;;;8.40;58.20;;;;;;5116851;28;20192;-85
2022/03/23 08:26:09;;;;;;;23.30;11.20;;;8.60;58.30;;;;;;5098499;28;20187;-87
2022/03/23 08:28:36;;;;;;;21.83;10.23;;;8.60;58.70;;;;;;5116560;28;20315;-83
2022/03/23 08:31:02;;;;;;;30.00;11.90;;;8.80;59.10;;;;;;5116762;28;20184;-86
2022/03/23 08:33:32;;;;;;;27.13;11.27;;;8.90;58.70;;;;;;5117958;28;20202;-84
2022/03/23 08:35:59;;;;;;;26.97;11.30;;;8.90;58.50;;;;;;5099654;28;20178;-84
2022/03/23 08:38:25;;;;;;;30.77;11.70;;;9.10;58.80;;;;;;5117986;28;20168;-84
2022/03/23 08:40:51;;;;;;;35.07;12.23;;;9.20;58.80;;;;;;5132371;28;20185;-82
2022/03/23 08:43:16;;;;;;;19.67;11.03;;;9.30;58.60;;;;;;5138487;28;20169;-87
2022/03/23 08:45:43;;;;;;;19.90;10.13;;;9.40;57.50;;;;;;5126082;28;20717;-85
2022/03/23 08:48:09;;;;;;;15.60;8.63;;;9.60;56.20;;;;;;5117990;28;20173;-88
2022/03/23 08:50:36;;;;;;;15.67;8.97;;;9.70;55.40;;;;;;5116940;28;20248;-88
2022/03/23 08:53:04;;;;;;;30.40;9.97;;;9.80;55.10;;;;;;5098129;28;20210;-86
2022/03/23 08:55:30;;;;;;;16.23;9.63;;;9.90;55.10;;;;;;5098154;28;20174;-83
2022/03/23 08:57:56;;;;;;;18.37;9.73;;;9.90;55.30;;;;;;5116533;28;20633;-88
2022/03/23 09:00:22;;;;;;;23.13;9.93;;;10.10;54.30;;;;;;5116629;28;20528;-88
2022/03/23 09:02:48;;;;;;;20.83;10.17;;;10.30;54.50;;;;;;5116446;28;20226;-89
2022/03/23 09:05:15;;;;;;;23.20;10.37;;;10.40;54.70;;;;;;5116736;28;20223;-86
2022/03/23 09:07:42;;;;;;;16.87;9.83;;;10.50;54.40;;;;;;5115971;28;20174;-86
2022/03/23 09:10:13;;;;;;;19.33;9.33;;;10.60;54.40;;;;;;5116014;28;20170;-86
2022/03/23 09:12:41;;;;;;;18.70;9.50;;;10.80;54.90;;;;;;5115885;28;20165;-86
2022/03/23 09:15:08;;;;;;;23.00;10.27;;;10.90;53.40;;;;;;5097598;28;20231;-85
2022/03/23 09:17:35;;;;;;;17.50;9.10;;;11.00;53.50;;;;;;5115949;28;20701;-84
2022/03/23 09:20:01;;;;;;;23.60;9.67;;;11.00;53.50;;;;;;5115667;28;20201;-84
2022/03/23 09:22:28;;;;;;;21.43;8.63;;;11.10;53.40;;;;;;5097700;28;20172;-84
2022/03/23 09:24:54;;;;;;;28.63;8.97;;;11.20;52.10;;;;;;5116220;28;20208;-84
2022/03/23 09:27:20;;;;;;;18.77;9.30;;;11.20;52.20;;;;;;5116291;28;20184;-87
2022/03/23 09:29:46;;;;;;;13.47;8.60;;;11.30;52.90;;;;;;5116366;28;20640;-84
2022/03/23 09:32:12;;;;;;;12.83;8.33;;;11.40;52.30;;;;;;5116533;28;20171;-85
2022/03/23 09:34:39;;;;;;;14.53;8.00;;;11.50;51.40;;;;;;5116508;28;20243;-84
2022/03/23 09:39:52;;;;;;;19.97;8.17;;;11.70;51.00;;;;;;5117372;28;20602;-86
2022/03/23 09:42:18;;;;;;;12.87;7.37;;;11.80;49.80;;;;;;5116565;28;20250;-88
2022/03/23 09:44:48;;;;;;;12.53;6.80;;;11.80;49.40;;;;;;5116271;28;20199;-85
2022/03/23 09:47:15;;;;;;;14.13;7.27;;;11.90;48.90;;;;;;5117935;28;20181;-89
2022/03/23 09:49:42;;;;;;;14.37;6.83;;;12.00;49.00;;;;;;5115909;28;20212;-87
2022/03/23 09:52:08;;;;;;;14.67;6.20;;;12.20;48.70;;;;;;5115787;28;20643;-87
2022/03/23 09:54:34;;;;;;;13.07;7.20;;;12.20;48.00;;;;;;5115163;28;20205;-88
2022/03/23 09:57:00;;;;;;;12.77;7.30;;;12.20;48.10;;;;;;5115589;28;20237;-87
2022/03/23 09:59:27;;;;;;;9.47;6.30;;;12.30;48.10;;;;;;5115196;28;20176;-89
2022/03/23 10:02:02;;;;;;;15.47;6.13;;;12.40;47.20;;;;;;5115783;28;20173;-84
2022/03/23 10:04:49;;;;;;;12.03;6.60;;;12.40;47.60;;;;;;5114787;28;20552;-86
2022/03/23 10:07:42;;;;;;;11.67;6.60;;;12.50;47.70;;;;;;5115960;28;20236;-84
2022/03/23 10:10:11;;;;;;;12.80;6.40;;;12.60;47.80;;;;;;5115207;28;20157;-87
2022/03/23 10:12:55;;;;;;;9.20;6.07;;;12.70;46.90;;;;;;5114812;28;20592;-88
2022/03/23 10:15:58;;;;;;;11.53;6.30;;;12.80;47.40;;;;;;5116354;28;20244;-83
2022/03/23 10:18:53;;;;;;;9.00;6.00;;;13.00;47.50;;;;;;5115861;28;20169;-87
2022/03/23 10:21:33;;;;;;;14.67;5.93;;;13.10;46.80;;;;;;5115109;28;20237;-85
2022/03/23 10:24:02;;;;;;;6.70;5.80;;;13.20;47.20;;;;;;5096854;28;20166;-84
2022/03/23 10:26:30;;;;;;;10.07;5.97;;;13.20;47.30;;;;;;5118039;28;20170;-84
2022/03/23 10:28:57;;;;;;;8.23;5.60;;;13.20;46.70;;;;;;5116093;28;20218;-85
2022/03/23 10:31:25;;;;;;;13.07;5.03;;;13.20;46.80;;;;;;5117175;28;20174;-84
2022/03/23 10:34:10;;;;;;;10.67;5.00;;;13.20;46.30;;;;;;5134541;28;20205;-85
2022/03/23 10:36:39;;;;;;;7.07;5.23;;;13.30;45.20;;;;;;5137160;28;20146;-87
2022/03/23 10:39:10;;;;;;;9.03;5.17;;;13.50;45.50;;;;;;5108061;28;20186;-83
2022/03/23 10:41:36;;;;;;;5.53;5.03;;;13.60;45.00;;;;;;5116947;28;20151;-83
2022/03/23 10:44:02;;;;;;;8.50;5.07;;;13.70;44.00;;;;;;5114624;28;20181;-85
2022/03/23 10:46:28;;;;;;;5.63;5.10;;;13.80;43.40;;;;;;5116095;28;20170;-83
2022/03/23 10:49:04;;;;;;;8.33;5.30;;;13.80;41.50;;;;;;5114589;28;20253;-85
2022/03/23 10:51:31;;;;;;;7.17;4.63;;;14.00;41.60;;;;;;5115139;28;20357;-89
2022/03/23 10:53:58;;;;;;;6.93;4.70;;;14.10;41.40;;;;;;5114261;28;20280;-88
2022/03/23 10:56:37;;;;;;;4.80;4.40;;;14.20;40.10;;;;;;5114692;28;20173;-88
2022/03/23 10:59:32;;;;;;;6.07;4.37;;;14.30;37.70;;;;;;5114232;28;20180;-86
2022/03/23 11:02:06;;;;;;;5.53;4.97;;;14.20;38.60;;;;;;5096902;28;20182;-84
2022/03/23 11:04:53;;;;;;;5.40;4.83;;;14.40;41.40;;;;;;5096336;28;20257;-87
2022/03/23 11:07:27;;;;;;;5.47;4.90;;;14.40;41.00;;;;;;5114256;28;20295;-88
2022/03/23 11:18:20;;;;;;;8.03;5.63;;;14.50;41.90;;;;;;5117406;28;20222;-84
2022/03/23 11:20:56;;;;;;;11.23;4.80;;;14.60;42.30;;;;;;5115711;28;20622;-83
2022/03/23 11:23:26;;;;;;;7.60;4.70;;;14.60;41.30;;;;;;5114204;28;20260;-86
2022/03/23 11:26:00;;;;;;;5.50;4.70;;;14.70;41.50;;;;;;5114819;28;20171;-82
2022/03/23 11:28:28;;;;;;;5.47;4.50;;;14.70;41.00;;;;;;5113992;28;20222;-87
2022/03/23 11:30:55;;;;;;;5.27;4.30;;;14.80;41.60;;;;;;5114126;28;20178;-85
2022/03/23 11:33:25;;;;;;;7.90;4.93;;;14.90;40.70;;;;;;5114341;28;20251;-87
2022/03/23 11:35:52;;;;;;;11.70;4.53;;;14.90;40.30;;;;;;5114145;28;20174;-88
2022/03/23 11:38:28;;;;;;;7.53;4.30;;;15.10;40.10;;;;;;5114024;28;20182;-84
2022/03/23 11:40:55;;;;;;;5.13;4.07;;;15.40;39.90;;;;;;5113838;28;20532;-84
2022/03/23 11:43:24;;;;;;;5.27;4.63;;;15.40;39.20;;;;;;5113802;28;20174;-83
2022/03/23 11:45:52;;;;;;;5.60;4.43;;;15.30;39.50;;;;;;5113393;28;20206;-84
2022/03/23 11:48:30;;;;;;;13.73;4.97;;;15.30;39.20;;;;;;5113579;28;20167;-88
2022/03/23 11:51:15;;;;;;;7.57;5.10;;;15.40;39.50;;;;;;5113560;28;20685;-84
2022/03/23 11:53:55;;;;;;;10.13;4.50;;;15.50;39.40;;;;;;5114582;28;20195;-84
2022/03/23 11:56:38;;;;;;;6.47;4.60;;;15.50;39.20;;;;;;5120196;28;20164;-84
2022/03/23 11:59:24;;;;;;;8.93;4.30;;;15.60;39.70;;;;;;5099777;28;20551;-85
2022/03/23 12:01:51;;;;;;;5.90;4.47;;;15.60;37.10;;;;;;5118497;28;20627;-85
2022/03/23 12:04:19;;;;;;;6.70;4.10;;;15.60;37.60;;;;;;5117280;28;20221;-84
2022/03/23 12:06:47;;;;;;;7.03;4.47;;;15.70;38.30;;;;;;5117475;28;20171;-83
2022/03/23 12:09:33;;;;;;;4.67;4.30;;;15.80;37.00;;;;;;5116932;28;20176;-85
2022/03/23 12:12:00;;;;;;;5.73;4.20;;;15.80;37.90;;;;;;5117254;28;20162;-85
2022/03/23 12:14:31;;;;;;;4.53;4.23;;;15.70;37.30;;;;;;5098912;28;20564;-84
2022/03/23 12:17:20;;;;;;;9.67;4.17;;;15.70;36.80;;;;;;5116794;28;20211;-84
2022/03/23 12:20:08;;;;;;;6.60;5.27;;;15.70;36.90;;;;;;5098408;28;20178;-84
2022/03/23 12:22:34;;;;;;;5.13;4.43;;;15.80;37.70;;;;;;5118484;28;20158;-84
2022/03/23 12:25:26;;;;;;;5.73;4.20;;;15.90;35.70;;;;;;5121397;28;20648;-86
2022/03/23 12:28:16;;;;;;;5.23;4.10;;;16.00;36.30;;;;;;5140489;28;20193;-85
2022/03/23 12:30:56;;;;;;;4.73;4.20;;;16.10;36.10;;;;;;5134549;28;20238;-89
2022/03/23 12:33:27;;;;;;;7.50;4.03;;;16.00;35.40;;;;;;5100628;28;20667;-87
2022/03/23 12:36:03;;;;;;;5.90;4.30;;;16.10;35.50;;;;;;5120658;28;20179;-88
2022/03/23 12:38:29;;;;;;;6.80;4.57;;;16.10;35.20;;;;;;5119573;28;20172;-86
2022/03/23 12:40:57;;;;;;;4.63;4.13;;;16.20;36.50;;;;;;5118269;28;20621;-88
2022/03/23 12:43:46;;;;;;;6.40;4.10;;;16.20;35.40;;;;;;5101939;28;20184;-90
2022/03/23 12:46:23;;;;;;;9.70;3.90;;;16.40;35.10;;;;;;5117796;28;20190;-89
2022/03/23 12:57:50;;;;;;;5.80;4.73;;;16.50;33.50;;;;;;5116351;28;20617;-84
2022/03/23 13:00:43;;;;;;;5.57;4.73;;;16.40;33.30;;;;;;5116924;28;20521;-85
2022/03/23 13:03:52;;;;;;;5.30;4.30;;;16.30;33.30;;;;;;5092496;28;20181;-85
2022/03/23 13:06:19;;;;;;;4.77;4.37;;;16.50;33.90;;;;;;5115486;28;20162;-87
2022/03/23 13:08:50;;;;;;;5.37;4.83;;;16.50;33.70;;;;;;5098197;28;20256;-84
2022/03/23 13:11:20;;;;;;;4.57;4.13;;;16.40;33.40;;;;;;5116647;28;20146;-84
2022/03/23 13:13:50;;;;;;;5.13;3.63;;;16.50;33.80;;;;;;5115955;28;20200;-87
2022/03/23 13:16:25;;;;;;;3.93;3.63;;;16.60;33.10;;;;;;5097552;28;20621;-85
2022/03/23 13:18:59;;;;;;;3.73;3.43;;;16.50;32.40;;;;;;5115919;28;20164;-86
2022/03/23 13:21:31;;;;;;;3.80;3.60;;;16.60;31.70;;;;;;5116311;28;20146;-84
2022/03/23 13:24:03;;;;;;;3.40;3.10;;;16.50;30.50;;;;;;5116024;28;20646;-87
2022/03/23 13:26:34;;;;;;;4.77;3.80;;;16.50;30.60;;;;;;5115872;28;20160;-86